sensor_id;sensor_type;location;lat;lon;timestamp;pressure;altitude;pressure_sealevel;temperature;humidity
68654;BME280;55636;51.108;13.622;2022-09-16T00:00:17;99441.00;;;13.45;61.09
68654;BME280;55636;51.108;13.622;2022-09-16T00:01:20;99429.09;;;13.45;61.29
68654;BME280;55636;51.108;13.622;2022-09-16T00:02:22;99434.91;;;13.43;61.17
68654;BME280;55636;51.108;13.622;2022-09-16T00:03:25;99430.50;;;13.42;61.12
68654;BME280;55636;51.108;13.622;2022-09-16T00:04:27;99437.69;;;13.43;61.46
68654;BME280;55636;51.108;13.622;2022-09-16T00:05:29;99436.06;;;13.42;61.21
68654;BME280;55636;51.108;13.622;2022-09-16T00:06:31;99426.09;;;13.41;61.29
68654;BME280;55636;51.108;13.622;2022-09-16T00:07:34;99421.66;;;13.40;61.42
68654;BME280;55636;51.108;13.622;2022-09-16T00:08:36;99428.31;;;13.39;61.35
68654;BME280;55636;51.108;13.622;2022-09-16T00:09:41;99425.56;;;13.39;61.32
68654;BME280;55636;51.108;13.622;2022-09-16T00:10:43;99425.84;;;13.38;61.64
68654;BME280;55636;51.108;13.622;2022-09-16T00:11:47;99421.44;;;13.37;61.64
68654;BME280;55636;51.108;13.622;2022-09-16T00:12:49;99426.97;;;13.37;61.59
68654;BME280;55636;51.108;13.622;2022-09-16T00:13:51;99422.56;;;13.36;61.40
68654;BME280;55636;51.108;13.622;2022-09-16T00:14:54;99420.09;;;13.34;61.28
68654;BME280;55636;51.108;13.622;2022-09-16T00:15:56;99425.63;;;13.34;61.31
68654;BME280;55636;51.108;13.622;2022-09-16T00:17:01;99424.28;;;13.31;61.51
68654;BME280;55636;51.108;13.622;2022-09-16T00:18:03;99429.03;;;13.31;61.15
68654;BME280;55636;51.108;13.622;2022-09-16T00:19:10;99430.13;;;13.30;61.37
68654;BME280;55636;51.108;13.622;2022-09-16T00:20:14;99431.25;;;13.29;61.47
68654;BME280;55636;51.108;13.622;2022-09-16T00:21:16;99430.75;;;13.27;61.28
68654;BME280;55636;51.108;13.622;2022-09-16T00:22:18;99434.34;;;13.27;61.45
68654;BME280;55636;51.108;13.622;2022-09-16T00:23:20;99430.22;;;13.25;61.64
68654;BME280;55636;51.108;13.622;2022-09-16T00:24:22;99434.94;;;13.24;61.53
68654;BME280;55636;51.108;13.622;2022-09-16T00:25:25;99437.19;;;13.22;61.60
68654;BME280;55636;51.108;13.622;2022-09-16T00:26:27;99445.50;;;13.22;61.51
68654;BME280;55636;51.108;13.622;2022-09-16T00:27:30;99438.31;;;13.21;61.95
68654;BME280;55636;51.108;13.622;2022-09-16T00:28:32;99437.50;;;13.21;61.90
68654;BME280;55636;51.108;13.622;2022-09-16T00:29:35;99438.63;;;13.20;61.76
68654;BME280;55636;51.108;13.622;2022-09-16T00:30:37;99438.63;;;13.20;61.69
68654;BME280;55636;51.108;13.622;2022-09-16T00:31:39;99442.50;;;13.18;61.84
68654;BME280;55636;51.108;13.622;2022-09-16T00:32:41;99446.44;;;13.17;61.97
68654;BME280;55636;51.108;13.622;2022-09-16T00:33:44;99442.00;;;13.16;62.03
68654;BME280;55636;51.108;13.622;2022-09-16T00:34:46;99439.22;;;13.16;62.18
68654;BME280;55636;51.108;13.622;2022-09-16T00:35:48;99441.16;;;13.16;62.09
68654;BME280;55636;51.108;13.622;2022-09-16T00:36:50;99438.69;;;13.14;62.50
68654;BME280;55636;51.108;13.622;2022-09-16T00:37:53;99439.81;;;13.13;62.26
68654;BME280;55636;51.108;13.622;2022-09-16T00:38:55;99433.44;;;13.13;62.20
68654;BME280;55636;51.108;13.622;2022-09-16T00:39:57;99431.78;;;13.12;62.17
68654;BME280;55636;51.108;13.622;2022-09-16T00:40:59;99428.22;;;13.11;62.27
68654;BME280;55636;51.108;13.622;2022-09-16T00:42:03;99429.31;;;13.10;62.44
68654;BME280;55636;51.108;13.622;2022-09-16T00:43:08;99432.91;;;13.11;62.16
68654;BME280;55636;51.108;13.622;2022-09-16T00:44:50;99436.00;;;13.09;62.46
68654;BME280;55636;51.108;13.622;2022-09-16T00:46:01;99427.69;;;13.09;62.14
68654;BME280;55636;51.108;13.622;2022-09-16T00:47:05;99426.31;;;13.07;62.28
68654;BME280;55636;51.108;13.622;2022-09-16T00:48:09;99427.97;;;13.08;62.33
68654;BME280;55636;51.108;13.622;2022-09-16T00:49:24;99432.72;;;13.07;62.60
68654;BME280;55636;51.108;13.622;2022-09-16T00:50:59;99439.38;;;13.06;62.49
68654;BME280;55636;51.108;13.622;2022-09-16T00:52:04;99440.50;;;13.05;62.55
68654;BME280;55636;51.108;13.622;2022-09-16T00:53:12;99436.06;;;13.04;62.37
68654;BME280;55636;51.108;13.622;2022-09-16T00:54:17;99432.47;;;13.04;62.30
68654;BME280;55636;51.108;13.622;2022-09-16T00:55:25;99437.22;;;13.03;62.59
68654;BME280;55636;51.108;13.622;2022-09-16T00:56:31;99438.34;;;13.02;62.68
68654;BME280;55636;51.108;13.622;2022-09-16T00:57:36;99427.25;;;13.02;62.76
68654;BME280;55636;51.108;13.622;2022-09-16T00:58:45;99444.69;;;13.03;62.80
68654;BME280;55636;51.108;13.622;2022-09-16T00:59:53;99436.69;;;13.01;62.64
68654;BME280;55636;51.108;13.622;2022-09-16T01:00:56;99443.34;;;13.00;62.61
68654;BME280;55636;51.108;13.622;2022-09-16T01:02:03;99442.22;;;13.01;62.84
68654;BME280;55636;51.108;13.622;2022-09-16T01:03:07;99443.34;;;13.00;62.95
68654;BME280;55636;51.108;13.622;2022-09-16T01:04:19;99439.75;;;12.99;62.64
68654;BME280;55636;51.108;13.622;2022-09-16T01:05:24;99440.88;;;12.98;62.90
68654;BME280;55636;51.108;13.622;2022-09-16T01:06:28;99434.50;;;12.98;62.81
68654;BME280;55636;51.108;13.622;2022-09-16T01:07:41;99433.66;;;12.97;62.65
68654;BME280;55636;51.108;13.622;2022-09-16T01:08:45;99444.75;;;12.97;62.79
68654;BME280;55636;51.108;13.622;2022-09-16T01:09:47;99440.34;;;12.96;62.77
68654;BME280;55636;51.108;13.622;2022-09-16T01:10:49;99441.47;;;12.95;62.69
68654;BME280;55636;51.108;13.622;2022-09-16T01:11:52;99439.53;;;12.96;62.46
68654;BME280;55636;51.108;13.622;2022-09-16T01:12:56;99444.53;;;12.94;62.70
68654;BME280;55636;51.108;13.622;2022-09-16T01:14:01;99430.97;;;12.92;62.61
68654;BME280;55636;51.108;13.622;2022-09-16T01:15:40;99440.41;;;12.91;62.27
68654;BME280;55636;51.108;13.622;2022-09-16T01:17:03;99439.59;;;12.91;62.25
68654;BME280;55636;51.108;13.622;2022-09-16T01:20:14;99433.50;;;12.89;62.06
68654;BME280;55636;51.108;13.622;2022-09-16T01:24:09;99443.84;;;12.83;61.93
68654;BME280;55636;51.108;13.622;2022-09-16T01:25:48;99440.28;;;12.82;61.52
68654;BME280;55636;51.108;13.622;2022-09-16T01:27:29;99440.84;;;12.79;61.68
68654;BME280;55636;51.108;13.622;2022-09-16T01:31:23;99448.94;;;12.76;61.37
68654;BME280;55636;51.108;13.622;2022-09-16T01:35:29;99443.75;;;12.69;61.36
68654;BME280;55636;51.108;13.622;2022-09-16T01:37:08;99445.16;;;12.66;61.42
68654;BME280;55636;51.108;13.622;2022-09-16T01:43:44;99443.56;;;12.60;61.52
68654;BME280;55636;51.108;13.622;2022-09-16T01:45:55;99448.56;;;12.58;61.38
68654;BME280;55636;51.108;13.622;2022-09-16T01:47:02;99453.31;;;12.58;61.33
68654;BME280;55636;51.108;13.622;2022-09-16T01:49:27;99450.00;;;12.56;61.63
68654;BME280;55636;51.108;13.622;2022-09-16T01:50:40;99454.72;;;12.55;61.40
68654;BME280;55636;51.108;13.622;2022-09-16T01:51:52;99449.47;;;12.54;61.73
68654;BME280;55636;51.108;13.622;2022-09-16T01:54:26;99454.19;;;12.53;61.79
68654;BME280;55636;51.108;13.622;2022-09-16T01:55:53;99441.44;;;12.52;61.52
68654;BME280;55636;51.108;13.622;2022-09-16T01:58:07;99448.94;;;12.51;61.43
68654;BME280;55636;51.108;13.622;2022-09-16T01:59:03;99436.19;;;12.50;61.45
68654;BME280;55636;51.108;13.622;2022-09-16T02:00:11;99445.34;;;12.51;61.83
68654;BME280;55636;51.108;13.622;2022-09-16T02:01:41;99446.47;;;12.50;61.56
68654;BME280;55636;51.108;13.622;2022-09-16T02:03:08;99438.16;;;12.50;61.65
68654;BME280;55636;51.108;13.622;2022-09-16T02:04:15;99444.50;;;12.50;61.84
68654;BME280;55636;51.108;13.622;2022-09-16T02:05:26;99439.28;;;12.49;61.61
68654;BME280;55636;51.108;13.622;2022-09-16T02:06:31;99441.22;;;12.48;61.80
68654;BME280;55636;51.108;13.622;2022-09-16T02:07:38;99442.84;;;12.49;61.81
68654;BME280;55636;51.108;13.622;2022-09-16T02:08:51;99454.78;;;12.50;61.52
68654;BME280;55636;51.108;13.622;2022-09-16T02:09:57;99447.59;;;12.49;61.58
68654;BME280;55636;51.108;13.622;2022-09-16T02:11:02;99447.59;;;12.49;61.41
68654;BME280;55636;51.108;13.622;2022-09-16T02:12:10;99454.78;;;12.50;61.62
68654;BME280;55636;51.108;13.622;2022-09-16T02:13:21;99453.94;;;12.49;61.50
68654;BME280;55636;51.108;13.622;2022-09-16T02:14:29;99455.59;;;12.50;61.53
68654;BME280;55636;51.108;13.622;2022-09-16T02:15:33;99448.41;;;12.49;61.43
68654;BME280;55636;51.108;13.622;2022-09-16T02:16:40;99453.66;;;12.51;61.20
68654;BME280;55636;51.108;13.622;2022-09-16T02:17:48;99456.44;;;12.51;61.40
68654;BME280;55636;51.108;13.622;2022-09-16T02:18:56;99452.50;;;12.52;61.17
68654;BME280;55636;51.108;13.622;2022-09-16T02:21:12;99449.75;;;12.52;61.21
68654;BME280;55636;51.108;13.622;2022-09-16T02:22:24;99453.38;;;12.53;61.51
68654;BME280;55636;51.108;13.622;2022-09-16T02:23:41;99455.03;;;12.54;61.24
68654;BME280;55636;51.108;13.622;2022-09-16T02:24:47;99450.59;;;12.53;61.52
68654;BME280;55636;51.108;13.622;2022-09-16T02:25:50;99445.06;;;12.53;61.40
68654;BME280;55636;51.108;13.622;2022-09-16T02:26:57;99449.47;;;12.54;61.61
68654;BME280;55636;51.108;13.622;2022-09-16T02:28:04;99446.72;;;12.54;61.46
68654;BME280;55636;51.108;13.622;2022-09-16T02:29:16;99446.72;;;12.54;61.35
68654;BME280;55636;51.108;13.622;2022-09-16T02:30:21;99446.72;;;12.54;61.47
68654;BME280;55636;51.108;13.622;2022-09-16T02:31:31;99444.75;;;12.54;61.67
68654;BME280;55636;51.108;13.622;2022-09-16T02:32:38;99452.75;;;12.56;61.18
68654;BME280;55636;51.108;13.622;2022-09-16T02:34:04;99438.91;;;12.56;61.41
68654;BME280;55636;51.108;13.622;2022-09-16T02:35:10;99441.69;;;12.56;61.58
68654;BME280;55636;51.108;13.622;2022-09-16T02:36:18;99438.91;;;12.56;61.54
68654;BME280;55636;51.108;13.622;2022-09-16T02:37:25;99442.53;;;12.56;61.25
68654;BME280;55636;51.108;13.622;2022-09-16T02:38:35;99445.00;;;12.58;61.43
68654;BME280;55636;51.108;13.622;2022-09-16T02:39:43;99440.56;;;12.57;61.21
68654;BME280;55636;51.108;13.622;2022-09-16T02:40:51;99436.97;;;12.56;61.41
68654;BME280;55636;51.108;13.622;2022-09-16T02:41:57;99435.84;;;12.57;61.37
68654;BME280;55636;51.108;13.622;2022-09-16T02:43:00;99445.00;;;12.58;61.33
68654;BME280;55636;51.108;13.622;2022-09-16T02:44:03;99444.16;;;12.57;61.65
68654;BME280;55636;51.108;13.622;2022-09-16T02:45:07;99449.69;;;12.57;61.45
68654;BME280;55636;51.108;13.622;2022-09-16T02:46:30;99445.00;;;12.58;61.35
68654;BME280;55636;51.108;13.622;2022-09-16T02:48:12;99445.00;;;12.58;61.36
68654;BME280;55636;51.108;13.622;2022-09-16T02:49:27;99454.13;;;12.58;61.60
68654;BME280;55636;51.108;13.622;2022-09-16T02:52:11;99444.69;;;12.59;61.64
68654;BME280;55636;51.108;13.622;2022-09-16T02:53:48;99447.75;;;12.58;61.62
68654;BME280;55636;51.108;13.622;2022-09-16T02:55:14;99442.22;;;12.58;61.61
68654;BME280;55636;51.108;13.622;2022-09-16T02:56:28;99442.22;;;12.58;61.64
68654;BME280;55636;51.108;13.622;2022-09-16T02:57:32;99444.16;;;12.57;61.45
68654;BME280;55636;51.108;13.622;2022-09-16T02:58:35;99444.16;;;12.57;61.70
68654;BME280;55636;51.108;13.622;2022-09-16T02:59:37;99445.00;;;12.58;61.75
68654;BME280;55636;51.108;13.622;2022-09-16T03:00:44;99440.56;;;12.57;61.84
68654;BME280;55636;51.108;13.622;2022-09-16T03:01:47;99447.22;;;12.56;61.83
68654;BME280;55636;51.108;13.622;2022-09-16T03:02:50;99436.13;;;12.56;61.83
68654;BME280;55636;51.108;13.622;2022-09-16T03:03:53;99446.09;;;12.57;61.71
68654;BME280;55636;51.108;13.622;2022-09-16T03:04:56;99438.91;;;12.56;61.68
68654;BME280;55636;51.108;13.622;2022-09-16T03:07:09;99440.56;;;12.57;61.85
68654;BME280;55636;51.108;13.622;2022-09-16T03:08:12;99439.75;;;12.56;61.73
68654;BME280;55636;51.108;13.622;2022-09-16T03:09:15;99444.44;;;12.56;61.99
68654;BME280;55636;51.108;13.622;2022-09-16T03:10:19;99434.47;;;12.55;61.79
68654;BME280;55636;51.108;13.622;2022-09-16T03:12:55;99440.88;;;12.55;61.77
68654;BME280;55636;51.108;13.622;2022-09-16T03:14:26;99444.16;;;12.57;61.79
68654;BME280;55636;51.108;13.622;2022-09-16T03:18:31;99446.41;;;12.55;61.70
68654;BME280;55636;51.108;13.622;2022-09-16T03:22:37;99443.94;;;12.54;61.68
68654;BME280;55636;51.108;13.622;2022-09-16T03:25:03;99437.56;;;12.53;61.71
68654;BME280;55636;51.108;13.622;2022-09-16T03:27:42;99442.28;;;12.53;61.33
68654;BME280;55636;51.108;13.622;2022-09-16T03:30:24;99437.84;;;12.51;61.48
68654;BME280;55636;51.108;13.622;2022-09-16T03:31:33;99437.03;;;12.51;61.37
68654;BME280;55636;51.108;13.622;2022-09-16T03:32:50;99441.75;;;12.50;61.43
68654;BME280;55636;51.108;13.622;2022-09-16T03:34:08;99444.50;;;12.50;61.37
68654;BME280;55636;51.108;13.622;2022-09-16T03:36:24;99438.97;;;12.50;61.40
68654;BME280;55636;51.108;13.622;2022-09-16T03:37:28;99440.63;;;12.51;61.48
68654;BME280;55636;51.108;13.622;2022-09-16T03:38:35;99435.38;;;12.50;61.32
68654;BME280;55636;51.108;13.622;2022-09-16T03:39:40;99440.09;;;12.49;61.54
68654;BME280;55636;51.108;13.622;2022-09-16T03:40:43;99439.28;;;12.49;61.45
68654;BME280;55636;51.108;13.622;2022-09-16T03:41:47;99440.63;;;12.51;61.46
68654;BME280;55636;51.108;13.622;2022-09-16T03:42:49;99444.50;;;12.50;61.52
68654;BME280;55636;51.108;13.622;2022-09-16T03:43:54;99441.75;;;12.50;61.30
68654;BME280;55636;51.108;13.622;2022-09-16T03:45:02;99444.50;;;12.50;61.36
68654;BME280;55636;51.108;13.622;2022-09-16T03:46:13;99443.69;;;12.50;61.48
68654;BME280;55636;51.108;13.622;2022-09-16T03:47:32;99444.50;;;12.50;61.28
68654;BME280;55636;51.108;13.622;2022-09-16T03:48:34;99438.16;;;12.50;61.42
68654;BME280;55636;51.108;13.622;2022-09-16T03:49:37;99439.81;;;12.51;61.36
68654;BME280;55636;51.108;13.622;2022-09-16T03:50:39;99435.38;;;12.50;61.36
68654;BME280;55636;51.108;13.622;2022-09-16T03:51:44;99440.94;;;12.50;61.32
68654;BME280;55636;51.108;13.622;2022-09-16T03:52:46;99440.09;;;12.49;61.26
68654;BME280;55636;51.108;13.622;2022-09-16T03:53:50;99442.84;;;12.49;61.35
68654;BME280;55636;51.108;13.622;2022-09-16T03:54:52;99443.69;;;12.50;61.32
68654;BME280;55636;51.108;13.622;2022-09-16T03:55:54;99436.50;;;12.49;61.58
68654;BME280;55636;51.108;13.622;2022-09-16T03:56:56;99438.47;;;12.48;61.40
68654;BME280;55636;51.108;13.622;2022-09-16T03:57:59;99439.28;;;12.49;61.58
68654;BME280;55636;51.108;13.622;2022-09-16T03:59:01;99436.50;;;12.49;61.66
68654;BME280;55636;51.108;13.622;2022-09-16T04:00:05;99442.03;;;12.49;61.38
68654;BME280;55636;51.108;13.622;2022-09-16T04:01:14;99435.69;;;12.48;61.41
68654;BME280;55636;51.108;13.622;2022-09-16T04:02:17;99434.84;;;12.48;61.67
68654;BME280;55636;51.108;13.622;2022-09-16T04:03:19;99439.28;;;12.49;61.50
68654;BME280;55636;51.108;13.622;2022-09-16T04:04:21;99434.03;;;12.47;61.30
68654;BME280;55636;51.108;13.622;2022-09-16T04:05:24;99439.56;;;12.47;61.59
68654;BME280;55636;51.108;13.622;2022-09-16T04:06:26;99444.28;;;12.47;61.60
68654;BME280;55636;51.108;13.622;2022-09-16T04:07:28;99433.19;;;12.47;61.42
68654;BME280;55636;51.108;13.622;2022-09-16T04:08:30;99438.72;;;12.47;61.35
68654;BME280;55636;51.108;13.622;2022-09-16T04:09:33;99436.81;;;12.47;61.26
68654;BME280;55636;51.108;13.622;2022-09-16T04:10:35;99431.25;;;12.47;61.27
68654;BME280;55636;51.108;13.622;2022-09-16T04:11:38;99438.47;;;12.48;61.19
68654;BME280;55636;51.108;13.622;2022-09-16T04:12:40;99434.03;;;12.47;61.44
68654;BME280;55636;51.108;13.622;2022-09-16T04:13:42;99437.63;;;12.48;61.25
68654;BME280;55636;51.108;13.622;2022-09-16T04:14:44;99438.47;;;12.48;61.39
68654;BME280;55636;51.108;13.622;2022-09-16T04:15:47;99429.31;;;12.48;61.11
68654;BME280;55636;51.108;13.622;2022-09-16T04:16:49;99435.69;;;12.48;61.13
68654;BME280;55636;51.108;13.622;2022-09-16T04:17:51;99436.81;;;12.47;61.32
68654;BME280;55636;51.108;13.622;2022-09-16T04:18:53;99439.28;;;12.49;61.16
68654;BME280;55636;51.108;13.622;2022-09-16T04:19:55;99433.72;;;12.49;61.20
68654;BME280;55636;51.108;13.622;2022-09-16T04:21:00;99438.16;;;12.50;61.11
68654;BME280;55636;51.108;13.622;2022-09-16T04:22:02;99434.53;;;12.49;61.16
68654;BME280;55636;51.108;13.622;2022-09-16T04:23:04;99441.75;;;12.50;60.96
68654;BME280;55636;51.108;13.622;2022-09-16T04:24:07;99440.09;;;12.49;60.99
68654;BME280;55636;51.108;13.622;2022-09-16T04:25:14;99440.94;;;12.50;61.21
68654;BME280;55636;51.108;13.622;2022-09-16T04:26:16;99438.97;;;12.50;61.02
68654;BME280;55636;51.108;13.622;2022-09-16T04:27:18;99438.16;;;12.50;61.08
68654;BME280;55636;51.108;13.622;2022-09-16T04:28:21;99432.63;;;12.50;61.03
68654;BME280;55636;51.108;13.622;2022-09-16T04:29:23;99438.16;;;12.50;61.19
68654;BME280;55636;51.108;13.622;2022-09-16T04:30:26;99435.38;;;12.50;61.15
68654;BME280;55636;51.108;13.622;2022-09-16T04:31:29;99434.28;;;12.51;61.19
68654;BME280;55636;51.108;13.622;2022-09-16T04:32:31;99433.44;;;12.50;61.03
68654;BME280;55636;51.108;13.622;2022-09-16T04:33:34;99434.28;;;12.51;61.26
68654;BME280;55636;51.108;13.622;2022-09-16T04:34:36;99431.50;;;12.51;61.23
68654;BME280;55636;51.108;13.622;2022-09-16T04:35:38;99439.50;;;12.53;61.06
68654;BME280;55636;51.108;13.622;2022-09-16T04:36:41;99433.97;;;12.53;61.05
68654;BME280;55636;51.108;13.622;2022-09-16T04:37:43;99433.13;;;12.52;61.31
68654;BME280;55636;51.108;13.622;2022-09-16T04:38:46;99434.28;;;12.51;61.21
68654;BME280;55636;51.108;13.622;2022-09-16T04:39:49;99433.97;;;12.53;61.06
68654;BME280;55636;51.108;13.622;2022-09-16T04:40:51;99445.06;;;12.53;61.21
68654;BME280;55636;51.108;13.622;2022-09-16T04:41:55;99440.31;;;12.53;61.29
68654;BME280;55636;51.108;13.622;2022-09-16T04:42:57;99441.44;;;12.52;61.26
68654;BME280;55636;51.108;13.622;2022-09-16T04:43:59;99440.03;;;12.55;61.09
68654;BME280;55636;51.108;13.622;2022-09-16T04:45:02;99437.56;;;12.53;61.12
68654;BME280;55636;51.108;13.622;2022-09-16T04:46:05;99444.75;;;12.54;61.23
68654;BME280;55636;51.108;13.622;2022-09-16T04:47:07;99450.28;;;12.54;61.15
68654;BME280;55636;51.108;13.622;2022-09-16T04:48:09;99448.63;;;12.53;61.04
68654;BME280;55636;51.108;13.622;2022-09-16T04:49:12;99445.06;;;12.53;60.98
68654;BME280;55636;51.108;13.622;2022-09-16T04:50:14;99448.63;;;12.53;60.89
68654;BME280;55636;51.108;13.622;2022-09-16T04:51:18;99445.06;;;12.53;60.81
68654;BME280;55636;51.108;13.622;2022-09-16T04:52:21;99446.72;;;12.54;61.00
68654;BME280;55636;51.108;13.622;2022-09-16T04:53:23;99449.47;;;12.54;61.00
68654;BME280;55636;51.108;13.622;2022-09-16T04:54:26;99449.47;;;12.54;60.95
68654;BME280;55636;51.108;13.622;2022-09-16T04:55:28;99451.09;;;12.55;60.97
68654;BME280;55636;51.108;13.622;2022-09-16T04:56:31;99451.09;;;12.55;61.05
68654;BME280;55636;51.108;13.622;2022-09-16T04:57:33;99450.28;;;12.54;61.04
68654;BME280;55636;51.108;13.622;2022-09-16T04:58:35;99448.34;;;12.55;60.88
68654;BME280;55636;51.108;13.622;2022-09-16T04:59:38;99449.19;;;12.55;61.05
68654;BME280;55636;51.108;13.622;2022-09-16T05:00:40;99453.06;;;12.54;60.90
68654;BME280;55636;51.108;13.622;2022-09-16T05:01:42;99450.00;;;12.56;60.64
68654;BME280;55636;51.108;13.622;2022-09-16T05:02:45;99454.41;;;12.57;60.63
68654;BME280;55636;51.108;13.622;2022-09-16T05:03:49;99450.00;;;12.56;60.74
68654;BME280;55636;51.108;13.622;2022-09-16T05:04:52;99445.28;;;12.56;60.77
68654;BME280;55636;51.108;13.622;2022-09-16T05:06:03;99446.91;;;12.57;60.73
68654;BME280;55636;51.108;13.622;2022-09-16T05:07:08;99448.06;;;12.56;60.49
68654;BME280;55636;51.108;13.622;2022-09-16T05:08:10;99447.75;;;12.58;60.68
68654;BME280;55636;51.108;13.622;2022-09-16T05:09:13;99448.88;;;12.57;60.52
68654;BME280;55636;51.108;13.622;2022-09-16T05:10:16;99446.09;;;12.57;60.62
68654;BME280;55636;51.108;13.622;2022-09-16T05:11:21;99450.84;;;12.56;60.30
68654;BME280;55636;51.108;13.622;2022-09-16T05:12:23;99454.41;;;12.57;60.22
68654;BME280;55636;51.108;13.622;2022-09-16T05:13:26;99454.41;;;12.57;60.24
68654;BME280;55636;51.108;13.622;2022-09-16T05:14:28;99459.97;;;12.57;60.42
68654;BME280;55636;51.108;13.622;2022-09-16T05:15:32;99452.75;;;12.56;59.98
68654;BME280;55636;51.108;13.622;2022-09-16T05:16:34;99462.72;;;12.57;60.21
68654;BME280;55636;51.108;13.622;2022-09-16T05:17:37;99460.78;;;12.57;60.03
68654;BME280;55636;51.108;13.622;2022-09-16T05:18:54;99459.97;;;12.57;60.27
68654;BME280;55636;51.108;13.622;2022-09-16T05:19:57;99466.31;;;12.57;60.22
68654;BME280;55636;51.108;13.622;2022-09-16T05:21:00;99463.53;;;12.57;60.22
68654;BME280;55636;51.108;13.622;2022-09-16T05:22:03;99461.63;;;12.58;59.90
68654;BME280;55636;51.108;13.622;2022-09-16T05:23:08;99458.84;;;12.58;60.03
68654;BME280;55636;51.108;13.622;2022-09-16T05:24:12;99462.72;;;12.57;59.83
68654;BME280;55636;51.108;13.622;2022-09-16T05:25:14;99458.00;;;12.57;59.83
68654;BME280;55636;51.108;13.622;2022-09-16T05:27:22;99459.97;;;12.57;60.05
68654;BME280;55636;51.108;13.622;2022-09-16T05:28:24;99461.91;;;12.56;60.09
68654;BME280;55636;51.108;13.622;2022-09-16T05:29:26;99462.72;;;12.57;59.87
68654;BME280;55636;51.108;13.622;2022-09-16T05:30:29;99458.00;;;12.57;59.80
68654;BME280;55636;51.108;13.622;2022-09-16T05:31:36;99463.53;;;12.57;59.80
68654;BME280;55636;51.108;13.622;2022-09-16T05:32:38;99459.16;;;12.56;59.84
68654;BME280;55636;51.108;13.622;2022-09-16T05:33:44;99466.31;;;12.57;59.95
68654;BME280;55636;51.108;13.622;2022-09-16T05:34:47;99455.22;;;12.57;59.94
68654;BME280;55636;51.108;13.622;2022-09-16T05:35:50;99460.78;;;12.57;59.76
68654;BME280;55636;51.108;13.622;2022-09-16T05:36:53;99461.63;;;12.58;59.78
68654;BME280;55636;51.108;13.622;2022-09-16T05:37:56;99461.31;;;12.59;59.96
68654;BME280;55636;51.108;13.622;2022-09-16T05:38:58;99458.53;;;12.59;59.98
68654;BME280;55636;51.108;13.622;2022-09-16T05:40:21;99454.97;;;12.59;60.13
68654;BME280;55636;51.108;13.622;2022-09-16T05:41:24;99458.28;;;12.61;60.22
68654;BME280;55636;51.108;13.622;2022-09-16T05:42:26;99450.81;;;12.61;60.11
68654;BME280;55636;51.108;13.622;2022-09-16T05:43:31;99453.28;;;12.63;60.08
68654;BME280;55636;51.108;13.622;2022-09-16T05:44:34;99450.50;;;12.63;60.12
68654;BME280;55636;51.108;13.622;2022-09-16T05:45:36;99446.63;;;12.64;60.14
68654;BME280;55636;51.108;13.622;2022-09-16T05:46:40;99445.47;;;12.65;60.43
68654;BME280;55636;51.108;13.622;2022-09-16T05:47:49;99446.81;;;12.67;60.27
68654;BME280;55636;51.108;13.622;2022-09-16T05:48:51;99456.50;;;12.70;60.17
68654;BME280;55636;51.108;13.622;2022-09-16T05:49:54;99451.47;;;12.72;60.37
68654;BME280;55636;51.108;13.622;2022-09-16T05:50:58;99452.53;;;12.76;60.36
68654;BME280;55636;51.108;13.622;2022-09-16T05:52:01;99455.00;;;12.78;60.26
68654;BME280;55636;51.108;13.622;2022-09-16T05:53:03;99458.31;;;12.80;60.24
68654;BME280;55636;51.108;13.622;2022-09-16T05:54:05;99452.47;;;12.81;60.09
68654;BME280;55636;51.108;13.622;2022-09-16T05:55:08;99454.63;;;12.84;60.01
68654;BME280;55636;51.108;13.622;2022-09-16T05:56:18;99462.38;;;12.88;60.00
68654;BME280;55636;51.108;13.622;2022-09-16T05:57:21;99463.72;;;12.90;59.96
68654;BME280;55636;51.108;13.622;2022-09-16T05:58:26;99460.34;;;12.93;60.03
68654;BME280;55636;51.108;13.622;2022-09-16T05:59:29;99464.47;;;12.96;59.83
68654;BME280;55636;51.108;13.622;2022-09-16T06:00:31;99463.84;;;12.99;59.86
68654;BME280;55636;51.108;13.622;2022-09-16T06:01:34;99460.19;;;13.04;59.90
68654;BME280;55636;51.108;13.622;2022-09-16T06:02:36;99462.38;;;13.07;60.08
68654;BME280;55636;51.108;13.622;2022-09-16T06:03:40;99459.53;;;13.12;59.83
68654;BME280;55636;51.108;13.622;2022-09-16T06:04:43;99450.09;;;13.13;59.98
68654;BME280;55636;51.108;13.622;2022-09-16T06:05:45;99461.91;;;13.18;60.29
68654;BME280;55636;51.108;13.622;2022-09-16T06:06:47;99461.84;;;13.24;60.34
68654;BME280;55636;51.108;13.622;2022-09-16T06:07:49;99461.50;;;13.30;60.26
68654;BME280;55636;51.108;13.622;2022-09-16T06:08:54;99459.44;;;13.36;60.60
68654;BME280;55636;51.108;13.622;2022-09-16T06:09:56;99459.06;;;13.43;60.39
68654;BME280;55636;51.108;13.622;2022-09-16T06:11:00;99460.31;;;13.50;60.29
68654;BME280;55636;51.108;13.622;2022-09-16T06:12:03;99458.28;;;13.56;60.21
68654;BME280;55636;51.108;13.622;2022-09-16T06:13:06;99459.84;;;13.62;59.91
68654;BME280;55636;51.108;13.622;2022-09-16T06:14:09;99453.91;;;13.69;59.80
68654;BME280;55636;51.108;13.622;2022-09-16T06:15:12;99457.16;;;13.76;59.77
68654;BME280;55636;51.108;13.622;2022-09-16T06:16:14;99460.34;;;13.83;59.37
68654;BME280;55636;51.108;13.622;2022-09-16T06:17:16;99454.41;;;13.90;59.53
68654;BME280;55636;51.108;13.622;2022-09-16T06:18:19;99461.22;;;13.98;59.16
68654;BME280;55636;51.108;13.622;2022-09-16T06:19:22;99461.34;;;14.07;59.07
68654;BME280;55636;51.108;13.622;2022-09-16T06:20:24;99458.69;;;14.15;59.20
68654;BME280;55636;51.108;13.622;2022-09-16T06:21:27;99453.25;;;14.24;59.14
68654;BME280;55636;51.108;13.622;2022-09-16T06:22:29;99452.75;;;14.36;59.02
68654;BME280;55636;51.108;13.622;2022-09-16T06:23:32;99459.22;;;14.45;58.86